createdAt,value
2023-08-14T00:03:51.872Z,83
2023-08-14T00:08:53.238Z,81
2023-08-14T00:13:54.865Z,81
2023-08-14T00:18:56.075Z,81
2023-08-14T00:23:57.778Z,81
2023-08-14T00:28:59.128Z,82
2023-08-14T00:34:00.832Z,82
2023-08-14T00:39:02.412Z,81
2023-08-14T00:44:04.434Z,81
2023-08-14T00:49:06.310Z,79
2023-08-14T00:54:07.897Z,79
2023-08-14T00:59:09.946Z,79
2023-08-14T01:04:11.939Z,79
2023-08-14T01:09:13.346Z,79
2023-08-14T01:14:15.025Z,79
2023-08-14T01:19:16.902Z,79
2023-08-14T01:24:18.817Z,79
2023-08-14T01:29:20.127Z,79
2023-08-14T01:34:21.397Z,82
2023-08-14T01:39:22.906Z,81
2023-08-14T01:44:24.283Z,80
2023-08-14T01:49:25.668Z,81
2023-08-14T01:54:27.633Z,81
2023-08-14T01:59:28.920Z,81
2023-08-14T02:04:31.014Z,82
2023-08-14T02:09:32.900Z,82
2023-08-14T02:14:34.881Z,82
2023-08-14T02:19:36.592Z,82
2023-08-14T02:24:37.935Z,82
2023-08-14T02:29:39.283Z,82
2023-08-14T02:34:40.939Z,83
2023-08-14T02:39:43.077Z,84
2023-08-14T02:44:44.224Z,84
2023-08-14T02:49:46.205Z,83
2023-08-14T02:54:47.404Z,84
2023-08-14T02:59:49.428Z,84
2023-08-14T03:04:51.474Z,85
2023-08-14T03:09:52.881Z,86
2023-08-14T03:14:54.571Z,86
2023-08-14T03:19:56.164Z,85
2023-08-14T03:24:57.948Z,86
2023-08-14T03:29:59.822Z,86
2023-08-14T03:30:06.123Z,86
2023-08-14T03:35:08.127Z,85
2023-08-14T03:40:09.782Z,85
2023-08-14T03:45:11.830Z,85
2023-08-14T03:50:13.860Z,85
2023-08-14T03:55:15.306Z,85
2023-08-14T04:00:16.555Z,85
2023-08-14T04:05:18.685Z,85
2023-08-14T04:10:19.875Z,85
2023-08-14T04:15:21.876Z,86
2023-08-14T04:20:23.274Z,85
2023-08-14T04:25:24.622Z,86
2023-08-14T04:45:32.190Z,87
2023-08-14T05:35:49.649Z,83
2023-08-14T06:31:07.386Z,70
2023-08-14T06:41:11.541Z,66
2023-08-14T06:46:13.372Z,65
2023-08-14T07:01:18.533Z,59
2023-08-14T07:11:22.034Z,56
2023-08-14T07:21:25.584Z,56
2023-08-14T07:26:27.308Z,56
2023-08-14T07:31:29.302Z,55
2023-08-14T07:36:31.107Z,53
2023-08-14T07:41:32.753Z,54
2023-08-14T07:46:34.434Z,53
2023-08-14T07:51:35.961Z,52
2023-08-14T07:56:37.727Z,50
2023-08-14T08:01:38.874Z,49
2023-08-14T08:06:44.428Z,49
2023-08-14T08:11:42.173Z,47
2023-08-14T08:16:44.067Z,45
2023-08-14T08:21:46.194Z,46
2023-08-14T08:26:47.837Z,45
2023-08-14T08:31:49.669Z,44
2023-08-14T08:36:50.927Z,45
2023-08-14T08:41:52.985Z,44
2023-08-14T08:46:54.682Z,44
2023-08-14T08:51:55.909Z,44
2023-08-14T08:56:57.374Z,45
2023-08-14T09:01:59.273Z,44
2023-08-14T09:07:00.762Z,44
2023-08-14T09:12:02.359Z,43
2023-08-14T09:17:04.145Z,45
2023-08-14T09:22:05.923Z,45
2023-08-14T09:27:08.008Z,45
2023-08-14T09:32:09.675Z,46
2023-08-14T09:37:11.439Z,45
2023-08-14T09:42:13.557Z,45
2023-08-14T09:47:15.916Z,45
2023-08-14T09:52:17.076Z,43
2023-08-14T09:57:18.247Z,43
2023-08-14T10:02:21.872Z,43
2023-08-14T10:07:22.158Z,41
2023-08-14T10:12:23.449Z,42
2023-08-14T10:17:24.866Z,40
2023-08-14T10:22:26.680Z,40
2023-08-14T10:27:27.891Z,40
2023-08-14T10:32:29.076Z,39
2023-08-14T10:37:30.527Z,38
2023-08-14T10:42:31.968Z,37
2023-08-14T10:47:33.607Z,37
2023-08-14T10:52:37.437Z,37
2023-08-14T10:57:37.487Z,37
2023-08-14T11:02:38.714Z,36
2023-08-14T11:07:40.417Z,37
2023-08-14T11:12:42.316Z,36
2023-08-14T11:17:43.890Z,37
2023-08-14T11:22:45.687Z,38
2023-08-14T11:27:47.323Z,36
2023-08-14T11:32:49.154Z,35
2023-08-14T11:37:50.800Z,36
2023-08-14T11:42:52.522Z,36
2023-08-14T11:47:54.086Z,37
2023-08-14T11:52:55.872Z,36
2023-08-14T11:57:57.367Z,38
2023-08-14T12:02:58.545Z,38
2023-08-14T12:08:00.589Z,38
2023-08-14T12:13:02.511Z,38
2023-08-14T12:18:04.157Z,37
2023-08-14T12:23:05.587Z,37
2023-08-14T12:28:07.631Z,38
2023-08-14T12:33:09.791Z,39
2023-08-14T12:38:11.566Z,40
2023-08-14T12:43:13.309Z,39
2023-08-14T12:48:15.430Z,39
2023-08-14T12:53:17.274Z,38
2023-08-14T12:58:19.164Z,39
2023-08-14T13:03:27.612Z,39
2023-08-14T13:08:22.968Z,39
2023-08-14T13:13:24.992Z,38
2023-08-14T13:18:27.062Z,37
2023-08-14T13:23:28.823Z,37
2023-08-14T13:28:30.930Z,38
2023-08-14T13:33:32.804Z,37
2023-08-14T13:38:34.952Z,38
2023-08-14T13:43:36.878Z,38
2023-08-14T13:48:38.338Z,37
2023-08-14T13:53:40.301Z,36
2023-08-14T13:58:41.847Z,37
2023-08-14T14:03:43.902Z,37
2023-08-14T14:08:46.035Z,38
2023-08-14T14:13:47.340Z,37
2023-08-14T14:18:48.590Z,36
2023-08-14T14:23:50.270Z,36
2023-08-14T14:28:52.106Z,35
2023-08-14T14:33:55.649Z,35
2023-08-14T14:38:56.002Z,36
2023-08-14T14:43:57.424Z,36
2023-08-14T14:48:58.992Z,36
2023-08-14T14:54:00.320Z,37
2023-08-14T14:59:01.641Z,38
2023-08-14T15:04:03.690Z,38
2023-08-14T15:09:05.784Z,38
2023-08-14T15:14:07.876Z,39
2023-08-14T15:19:09.444Z,38
2023-08-14T15:24:10.995Z,39
2023-08-14T15:29:12.273Z,39
2023-08-14T15:34:13.879Z,38
2023-08-14T15:39:15.180Z,39
2023-08-14T15:44:17.247Z,38
2023-08-14T15:49:19.069Z,38
2023-08-14T15:54:20.705Z,37
2023-08-14T15:59:22.174Z,37
2023-08-14T16:04:24.040Z,36
2023-08-14T16:09:25.301Z,36
2023-08-14T16:14:26.801Z,37
2023-08-14T16:19:28.941Z,37
2023-08-14T16:24:31.073Z,37
2023-08-14T16:29:32.473Z,36
2023-08-14T16:34:34.004Z,37
2023-08-14T16:39:35.380Z,38
2023-08-14T16:44:37.300Z,38
2023-08-14T16:49:39.436Z,39
2023-08-14T16:54:41.104Z,38
2023-08-14T16:59:42.428Z,39
2023-08-14T17:04:43.677Z,39
2023-08-14T17:09:45.363Z,39
2023-08-14T17:14:47.385Z,40
2023-08-14T17:19:49.113Z,40
2023-08-14T17:24:50.909Z,40
2023-08-14T17:29:52.783Z,40
2023-08-14T17:34:54.370Z,41
2023-08-14T17:39:56.121Z,41
2023-08-14T17:44:57.833Z,42
2023-08-14T17:49:59.374Z,43
2023-08-14T17:55:01.454Z,44
2023-08-14T18:00:02.757Z,45
2023-08-14T18:05:04.923Z,45
2023-08-14T18:10:06.963Z,46
2023-08-14T18:15:09.066Z,46
2023-08-14T18:20:11.123Z,46
2023-08-14T18:25:13.057Z,47
2023-08-14T18:30:14.620Z,48
2023-08-14T18:35:16.181Z,49
2023-08-14T18:40:18.072Z,50
2023-08-14T18:45:20.100Z,50
2023-08-14T18:50:22.025Z,50
2023-08-14T18:55:23.888Z,50
2023-08-14T19:30:35.657Z,54
2023-08-14T19:35:37.005Z,55
2023-08-14T19:40:38.224Z,55
2023-08-14T19:55:42.582Z,58
2023-08-14T20:05:45.156Z,58
2023-08-14T20:15:49.228Z,59
2023-08-14T20:20:57.701Z,60
2023-08-14T20:25:59.869Z,61
2023-08-14T20:31:01.827Z,61
2023-08-14T20:41:04.180Z,61
2023-08-14T20:46:05.705Z,61
2023-08-14T21:01:10.549Z,62
2023-08-14T21:21:16.858Z,63
2023-08-14T21:46:25.099Z,67
2023-08-14T21:51:26.518Z,66
2023-08-14T21:56:28.640Z,66
2023-08-14T22:01:30.391Z,66
2023-08-14T22:06:32.079Z,66
2023-08-14T22:11:33.652Z,67
2023-08-14T22:16:35.945Z,66
2023-08-14T22:21:37.138Z,66
2023-08-14T22:26:38.492Z,68
2023-08-14T22:31:40.296Z,66
2023-08-14T22:36:42.076Z,65
2023-08-14T22:41:43.289Z,66
2023-08-14T22:46:45.013Z,67
2023-08-14T22:51:46.343Z,67
2023-08-14T22:56:47.941Z,67
2023-08-14T23:01:49.456Z,67
2023-08-14T23:06:51.642Z,69
2023-08-14T23:11:53.159Z,70
2023-08-14T23:16:55.302Z,69
2023-08-14T23:21:56.875Z,69
2023-08-14T23:26:58.304Z,70
2023-08-14T23:32:00.345Z,71
2023-08-14T23:37:02.490Z,70
2023-08-14T23:42:04.016Z,70
2023-08-14T23:47:05.963Z,70
2023-08-14T23:52:07.623Z,72
2023-08-14T23:57:09.565Z,71
